sensor_id;sensor_type;location;lat;lon;timestamp;pressure;altitude;pressure_sealevel;temperature
71640;BMP280;60912;48.968;10.124;2023-10-13T00:01:22;96721.91;;;16.18
71640;BMP280;60912;48.968;10.124;2023-10-13T00:03:48;96720.47;;;16.17
71640;BMP280;60912;48.968;10.124;2023-10-13T00:06:13;96724.13;;;16.19
71640;BMP280;60912;48.968;10.124;2023-10-13T00:08:38;96716.97;;;16.26
71640;BMP280;60912;48.968;10.124;2023-10-13T00:11:05;96725.47;;;16.28
71640;BMP280;60912;48.968;10.124;2023-10-13T00:13:31;96721.50;;;16.22
71640;BMP280;60912;48.968;10.124;2023-10-13T00:16:08;96716.34;;;16.18
71640;BMP280;60912;48.968;10.124;2023-10-13T00:18:35;96709.03;;;16.13
71640;BMP280;60912;48.968;10.124;2023-10-13T00:21:08;96708.72;;;16.09
71640;BMP280;60912;48.968;10.124;2023-10-13T00:23:40;96712.06;;;16.07
71640;BMP280;60912;48.968;10.124;2023-10-13T00:26:26;96710.03;;;16.08
71640;BMP280;60912;48.968;10.124;2023-10-13T00:28:56;96715.00;;;16.09
71640;BMP280;60912;48.968;10.124;2023-10-13T00:31:28;96708.44;;;16.05
71640;BMP280;60912;48.968;10.124;2023-10-13T00:34:02;96707.38;;;16.00
71640;BMP280;60912;48.968;10.124;2023-10-13T00:36:36;96708.94;;;15.94
71640;BMP280;60912;48.968;10.124;2023-10-13T00:39:02;96704.06;;;15.85
71640;BMP280;60912;48.968;10.124;2023-10-13T00:41:31;96695.88;;;15.77
71640;BMP280;60912;48.968;10.124;2023-10-13T00:44:20;96697.91;;;15.77
71640;BMP280;60912;48.968;10.124;2023-10-13T00:47:04;96700.47;;;15.65
71640;BMP280;60912;48.968;10.124;2023-10-13T00:49:33;96705.06;;;15.53
71640;BMP280;60912;48.968;10.124;2023-10-13T00:52:01;96700.63;;;15.40
71640;BMP280;60912;48.968;10.124;2023-10-13T00:54:26;96699.31;;;15.41
71640;BMP280;60912;48.968;10.124;2023-10-13T00:56:53;96700.19;;;15.44
71640;BMP280;60912;48.968;10.124;2023-10-13T00:59:30;96699.91;;;15.40
71640;BMP280;60912;48.968;10.124;2023-10-13T01:01:59;96694.91;;;15.38
71640;BMP280;60912;48.968;10.124;2023-10-13T01:04:45;96695.47;;;15.37
71640;BMP280;60912;48.968;10.124;2023-10-13T01:07:11;96696.63;;;15.34
71640;BMP280;60912;48.968;10.124;2023-10-13T01:09:43;96692.63;;;15.27
71640;BMP280;60912;48.968;10.124;2023-10-13T01:12:09;96686.34;;;15.27
71640;BMP280;60912;48.968;10.124;2023-10-13T01:14:35;96685.69;;;15.18
71640;BMP280;60912;48.968;10.124;2023-10-13T01:17:01;96688.00;;;15.12
71640;BMP280;60912;48.968;10.124;2023-10-13T01:19:27;96680.91;;;15.02
71640;BMP280;60912;48.968;10.124;2023-10-13T01:21:56;96682.38;;;15.03
71640;BMP280;60912;48.968;10.124;2023-10-13T01:24:27;96680.16;;;15.01
71640;BMP280;60912;48.968;10.124;2023-10-13T01:26:56;96673.72;;;14.82
71640;BMP280;60912;48.968;10.124;2023-10-13T01:29:22;96676.81;;;14.68
71640;BMP280;60912;48.968;10.124;2023-10-13T01:31:51;96685.69;;;14.67
71640;BMP280;60912;48.968;10.124;2023-10-13T01:34:18;96683.16;;;14.61
71640;BMP280;60912;48.968;10.124;2023-10-13T01:36:54;96675.25;;;14.58
71640;BMP280;60912;48.968;10.124;2023-10-13T01:39:22;96685.06;;;14.59
71640;BMP280;60912;48.968;10.124;2023-10-13T01:41:52;96676.88;;;14.61
71640;BMP280;60912;48.968;10.124;2023-10-13T01:44:29;96678.72;;;14.66
71640;BMP280;60912;48.968;10.124;2023-10-13T01:46:59;96666.16;;;14.65
71640;BMP280;60912;48.968;10.124;2023-10-13T01:49:31;96666.16;;;14.65
71640;BMP280;60912;48.968;10.124;2023-10-13T01:52:06;96672.72;;;14.69
71640;BMP280;60912;48.968;10.124;2023-10-13T01:54:34;96672.72;;;14.69
71640;BMP280;60912;48.968;10.124;2023-10-13T01:56:59;96668.66;;;14.70
71640;BMP280;60912;48.968;10.124;2023-10-13T01:59:25;96672.91;;;14.71
71640;BMP280;60912;48.968;10.124;2023-10-13T02:01:52;96672.72;;;14.69
71640;BMP280;60912;48.968;10.124;2023-10-13T02:04:20;96668.47;;;14.68
71640;BMP280;60912;48.968;10.124;2023-10-13T02:06:46;96674.69;;;14.59
71640;BMP280;60912;48.968;10.124;2023-10-13T02:09:12;96676.09;;;14.26
71640;BMP280;60912;48.968;10.124;2023-10-13T02:11:41;96678.63;;;14.07
71640;BMP280;60912;48.968;10.124;2023-10-13T02:14:07;96671.22;;;14.09
71640;BMP280;60912;48.968;10.124;2023-10-13T02:16:36;96680.38;;;14.19
71640;BMP280;60912;48.968;10.124;2023-10-13T02:19:02;96672.44;;;14.23
71640;BMP280;60912;48.968;10.124;2023-10-13T02:21:34;96668.38;;;14.24
71640;BMP280;60912;48.968;10.124;2023-10-13T02:24:06;96665.19;;;14.28
71640;BMP280;60912;48.968;10.124;2023-10-13T02:26:37;96657.91;;;14.33
71640;BMP280;60912;48.968;10.124;2023-10-13T02:29:04;96660.13;;;14.34
71640;BMP280;60912;48.968;10.124;2023-10-13T02:31:35;96652.94;;;14.31
71640;BMP280;60912;48.968;10.124;2023-10-13T02:34:01;96654.66;;;14.26
71640;BMP280;60912;48.968;10.124;2023-10-13T02:36:31;96654.41;;;14.07
71640;BMP280;60912;48.968;10.124;2023-10-13T02:39:12;96645.78;;;13.78
71640;BMP280;60912;48.968;10.124;2023-10-13T02:41:39;96651.75;;;13.67
71640;BMP280;60912;48.968;10.124;2023-10-13T02:44:06;96648.78;;;13.73
71640;BMP280;60912;48.968;10.124;2023-10-13T02:46:33;96641.16;;;13.81
71640;BMP280;60912;48.968;10.124;2023-10-13T02:49:02;96639.66;;;13.88
71640;BMP280;60912;48.968;10.124;2023-10-13T02:51:35;96636.03;;;13.95
71640;BMP280;60912;48.968;10.124;2023-10-13T02:54:01;96640.53;;;13.90
71640;BMP280;60912;48.968;10.124;2023-10-13T02:56:35;96632.84;;;13.81
71640;BMP280;60912;48.968;10.124;2023-10-13T02:59:02;96628.88;;;13.67
71640;BMP280;60912;48.968;10.124;2023-10-13T03:01:36;96623.91;;;13.65
71640;BMP280;60912;48.968;10.124;2023-10-13T03:04:03;96620.06;;;13.61
71640;BMP280;60912;48.968;10.124;2023-10-13T03:06:29;96621.28;;;13.67
71640;BMP280;60912;48.968;10.124;2023-10-13T03:09:10;96622.00;;;13.75
71640;BMP280;60912;48.968;10.124;2023-10-13T03:11:48;96621.75;;;13.81
71640;BMP280;60912;48.968;10.124;2023-10-13T03:14:20;96618.41;;;13.82
71640;BMP280;60912;48.968;10.124;2023-10-13T03:17:04;96614.19;;;13.82
71640;BMP280;60912;48.968;10.124;2023-10-13T03:19:34;96616.75;;;13.87
71640;BMP280;60912;48.968;10.124;2023-10-13T03:22:08;96615.81;;;13.85
71640;BMP280;60912;48.968;10.124;2023-10-13T03:24:38;96608.47;;;13.79
71640;BMP280;60912;48.968;10.124;2023-10-13T03:27:10;96615.47;;;13.80
71640;BMP280;60912;48.968;10.124;2023-10-13T03:29:40;96612.38;;;13.76
71640;BMP280;60912;48.968;10.124;2023-10-13T03:32:12;96611.09;;;13.77
71640;BMP280;60912;48.968;10.124;2023-10-13T03:34:39;96610.50;;;13.79
71640;BMP280;60912;48.968;10.124;2023-10-13T03:37:20;96612.97;;;13.75
71640;BMP280;60912;48.968;10.124;2023-10-13T03:40:05;96611.28;;;13.72
71640;BMP280;60912;48.968;10.124;2023-10-13T03:42:32;96619.78;;;13.74
71640;BMP280;60912;48.968;10.124;2023-10-13T03:44:57;96618.88;;;13.71
71640;BMP280;60912;48.968;10.124;2023-10-13T03:47:23;96612.59;;;13.71
71640;BMP280;60912;48.968;10.124;2023-10-13T03:49:57;96609.25;;;13.72
71640;BMP280;60912;48.968;10.124;2023-10-13T03:52:40;96609.25;;;13.72
71640;BMP280;60912;48.968;10.124;2023-10-13T03:55:06;96604.91;;;13.62
71640;BMP280;60912;48.968;10.124;2023-10-13T03:57:52;96606.81;;;13.52
71640;BMP280;60912;48.968;10.124;2023-10-13T04:00:17;96609.97;;;13.48
71640;BMP280;60912;48.968;10.124;2023-10-13T04:02:50;96599.09;;;13.50
71640;BMP280;60912;48.968;10.124;2023-10-13T04:05:35;96605.72;;;13.47
71640;BMP280;60912;48.968;10.124;2023-10-13T04:08:06;96613.66;;;13.51
71640;BMP280;60912;48.968;10.124;2023-10-13T04:10:51;96610.59;;;13.31
71640;BMP280;60912;48.968;10.124;2023-10-13T04:13:17;96602.16;;;13.29
71640;BMP280;60912;48.968;10.124;2023-10-13T04:15:43;96597.50;;;13.32
71640;BMP280;60912;48.968;10.124;2023-10-13T04:18:29;96601.41;;;13.29
71640;BMP280;60912;48.968;10.124;2023-10-13T04:21:14;96608.06;;;13.26
71640;BMP280;60912;48.968;10.124;2023-10-13T04:23:58;96606.19;;;13.28
71640;BMP280;60912;48.968;10.124;2023-10-13T04:26:42;96600.84;;;13.30
71640;BMP280;60912;48.968;10.124;2023-10-13T04:29:28;96593.53;;;13.18
71640;BMP280;60912;48.968;10.124;2023-10-13T04:32:11;96594.47;;;13.13
71640;BMP280;60912;48.968;10.124;2023-10-13T04:34:41;96591.56;;;13.11
71640;BMP280;60912;48.968;10.124;2023-10-13T04:37:14;96596.94;;;13.01
71640;BMP280;60912;48.968;10.124;2023-10-13T04:39:55;96598.63;;;12.97
71640;BMP280;60912;48.968;10.124;2023-10-13T04:42:35;96593.09;;;12.97
71640;BMP280;60912;48.968;10.124;2023-10-13T04:45:19;96595.22;;;13.06
71640;BMP280;60912;48.968;10.124;2023-10-13T04:47:58;96591.56;;;13.03
71640;BMP280;60912;48.968;10.124;2023-10-13T04:50:44;96584.25;;;12.91
71640;BMP280;60912;48.968;10.124;2023-10-13T04:53:13;96595.31;;;12.91
71640;BMP280;60912;48.968;10.124;2023-10-13T04:55:57;96595.47;;;12.93
71640;BMP280;60912;48.968;10.124;2023-10-13T04:58:32;96582.38;;;12.93
71640;BMP280;60912;48.968;10.124;2023-10-13T05:01:01;96587.78;;;12.83
71640;BMP280;60912;48.968;10.124;2023-10-13T05:03:45;96579.88;;;12.72
71640;BMP280;60912;48.968;10.124;2023-10-13T05:06:29;96579.53;;;12.68
71640;BMP280;60912;48.968;10.124;2023-10-13T05:09:07;96575.09;;;12.73
71640;BMP280;60912;48.968;10.124;2023-10-13T05:11:51;96571.22;;;12.68
71640;BMP280;60912;48.968;10.124;2023-10-13T05:14:35;96576.03;;;12.68
71640;BMP280;60912;48.968;10.124;2023-10-13T05:17:19;96567.00;;;12.67
71640;BMP280;60912;48.968;10.124;2023-10-13T05:20:04;96572.19;;;12.63
71640;BMP280;60912;48.968;10.124;2023-10-13T05:22:48;96570.34;;;12.58
71640;BMP280;60912;48.968;10.124;2023-10-13T05:25:36;96573.28;;;12.60
71640;BMP280;60912;48.968;10.124;2023-10-13T05:28:20;96572.75;;;12.62
71640;BMP280;60912;48.968;10.124;2023-10-13T05:31:04;96570.72;;;12.62
71640;BMP280;60912;48.968;10.124;2023-10-13T05:33:48;96570.72;;;12.55
71640;BMP280;60912;48.968;10.124;2023-10-13T05:36:37;96570.72;;;12.55
71640;BMP280;60912;48.968;10.124;2023-10-13T05:39:21;96564.44;;;12.54
71640;BMP280;60912;48.968;10.124;2023-10-13T05:42:05;96558.91;;;12.54
71640;BMP280;60912;48.968;10.124;2023-10-13T05:44:49;96567.03;;;12.52
71640;BMP280;60912;48.968;10.124;2023-10-13T05:47:34;96559.97;;;12.66
71640;BMP280;60912;48.968;10.124;2023-10-13T05:50:09;96571.34;;;12.85
71640;BMP280;60912;48.968;10.124;2023-10-13T05:52:45;96569.81;;;13.00
71640;BMP280;60912;48.968;10.124;2023-10-13T05:55:27;96562.03;;;13.06
71640;BMP280;60912;48.968;10.124;2023-10-13T05:58:11;96564.38;;;13.17
71640;BMP280;60912;48.968;10.124;2023-10-13T06:00:55;96569.06;;;13.39
71640;BMP280;60912;48.968;10.124;2023-10-13T06:03:40;96571.41;;;13.50
71640;BMP280;60912;48.968;10.124;2023-10-13T06:06:24;96564.50;;;13.59
71640;BMP280;60912;48.968;10.124;2023-10-13T06:09:08;96562.72;;;13.96
71640;BMP280;60912;48.968;10.124;2023-10-13T06:11:52;96572.06;;;14.77
71640;BMP280;60912;48.968;10.124;2023-10-13T06:14:36;96574.09;;;15.56
71640;BMP280;60912;48.968;10.124;2023-10-13T06:17:20;96573.34;;;16.11
71640;BMP280;60912;48.968;10.124;2023-10-13T06:20:05;96573.66;;;16.92
71640;BMP280;60912;48.968;10.124;2023-10-13T06:22:49;96577.44;;;17.78
71640;BMP280;60912;48.968;10.124;2023-10-13T06:25:33;96577.78;;;18.57
71640;BMP280;60912;48.968;10.124;2023-10-13T06:28:17;96577.56;;;19.55
71640;BMP280;60912;48.968;10.124;2023-10-13T06:31:03;96576.34;;;20.55
71640;BMP280;60912;48.968;10.124;2023-10-13T06:33:34;96568.50;;;21.18
71640;BMP280;60912;48.968;10.124;2023-10-13T06:36:03;96566.88;;;21.67
71640;BMP280;60912;48.968;10.124;2023-10-13T06:38:34;96571.88;;;21.98
71640;BMP280;60912;48.968;10.124;2023-10-13T06:41:06;96577.31;;;21.94
71640;BMP280;60912;48.968;10.124;2023-10-13T06:43:35;96568.72;;;22.48
71640;BMP280;60912;48.968;10.124;2023-10-13T06:46:06;96575.69;;;22.92
71640;BMP280;60912;48.968;10.124;2023-10-13T06:48:33;96569.50;;;23.43
71640;BMP280;60912;48.968;10.124;2023-10-13T06:51:02;96574.47;;;23.60
71640;BMP280;60912;48.968;10.124;2023-10-13T06:53:43;96572.88;;;23.73
71640;BMP280;60912;48.968;10.124;2023-10-13T06:56:12;96576.09;;;23.49
71640;BMP280;60912;48.968;10.124;2023-10-13T06:58:45;96568.84;;;23.44
71640;BMP280;60912;48.968;10.124;2023-10-13T07:01:12;96570.97;;;23.28
71640;BMP280;60912;48.968;10.124;2023-10-13T07:03:44;96571.97;;;22.88
71640;BMP280;60912;48.968;10.124;2023-10-13T07:06:17;96568.25;;;22.38
71640;BMP280;60912;48.968;10.124;2023-10-13T07:08:45;96572.09;;;22.02
71640;BMP280;60912;48.968;10.124;2023-10-13T07:11:26;96574.84;;;21.73
71640;BMP280;60912;48.968;10.124;2023-10-13T07:14:07;96571.63;;;21.51
71640;BMP280;60912;48.968;10.124;2023-10-13T07:16:42;96576.00;;;21.41
71640;BMP280;60912;48.968;10.124;2023-10-13T07:19:11;96577.53;;;21.16
71640;BMP280;60912;48.968;10.124;2023-10-13T07:21:43;96578.84;;;21.02
71640;BMP280;60912;48.968;10.124;2023-10-13T07:24:11;96577.06;;;20.95
71640;BMP280;60912;48.968;10.124;2023-10-13T07:26:37;96581.97;;;20.69
71640;BMP280;60912;48.968;10.124;2023-10-13T07:29:09;96575.16;;;20.47
71640;BMP280;60912;48.968;10.124;2023-10-13T07:31:34;96580.16;;;20.37
71640;BMP280;60912;48.968;10.124;2023-10-13T07:33:59;96572.00;;;20.41
71640;BMP280;60912;48.968;10.124;2023-10-13T07:36:35;96568.78;;;20.58
71640;BMP280;60912;48.968;10.124;2023-10-13T07:39:04;96571.72;;;20.73
71640;BMP280;60912;48.968;10.124;2023-10-13T07:41:48;96566.00;;;20.97
71640;BMP280;60912;48.968;10.124;2023-10-13T07:44:21;96561.28;;;21.01
71640;BMP280;60912;48.968;10.124;2023-10-13T07:46:52;96561.28;;;21.01
71640;BMP280;60912;48.968;10.124;2023-10-13T07:49:25;96560.22;;;20.81
71640;BMP280;60912;48.968;10.124;2023-10-13T07:51:57;96555.56;;;20.60
71640;BMP280;60912;48.968;10.124;2023-10-13T07:54:25;96554.31;;;20.50
71640;BMP280;60912;48.968;10.124;2023-10-13T07:56:51;96570.38;;;20.49
71640;BMP280;60912;48.968;10.124;2023-10-13T07:59:18;96556.84;;;20.57
71640;BMP280;60912;48.968;10.124;2023-10-13T08:01:47;96566.03;;;20.60
71640;BMP280;60912;48.968;10.124;2023-10-13T08:04:21;96552.69;;;20.58
71640;BMP280;60912;48.968;10.124;2023-10-13T08:06:53;96560.44;;;20.71
71640;BMP280;60912;48.968;10.124;2023-10-13T08:09:27;96550.63;;;20.84
71640;BMP280;60912;48.968;10.124;2023-10-13T08:11:56;96550.31;;;20.92
71640;BMP280;60912;48.968;10.124;2023-10-13T08:14:22;96548.06;;;21.15
71640;BMP280;60912;48.968;10.124;2023-10-13T08:16:54;96549.28;;;21.26
71640;BMP280;60912;48.968;10.124;2023-10-13T08:19:26;96548.06;;;21.43
71640;BMP280;60912;48.968;10.124;2023-10-13T08:22:10;96542.97;;;21.66
71640;BMP280;60912;48.968;10.124;2023-10-13T08:24:46;96541.97;;;21.89
71640;BMP280;60912;48.968;10.124;2023-10-13T08:27:13;96529.25;;;22.15
71640;BMP280;60912;48.968;10.124;2023-10-13T08:29:42;96534.03;;;22.42
71640;BMP280;60912;48.968;10.124;2023-10-13T08:32:29;96526.91;;;22.70
71640;BMP280;60912;48.968;10.124;2023-10-13T08:34:59;96522.19;;;22.90
71640;BMP280;60912;48.968;10.124;2023-10-13T08:37:35;96519.38;;;23.22
71640;BMP280;60912;48.968;10.124;2023-10-13T08:40:27;96519.69;;;23.45
71640;BMP280;60912;48.968;10.124;2023-10-13T08:43:12;96520.78;;;23.38
71640;BMP280;60912;48.968;10.124;2023-10-13T08:45:42;96525.91;;;23.59
71640;BMP280;60912;48.968;10.124;2023-10-13T08:48:10;96507.72;;;23.62
71640;BMP280;60912;48.968;10.124;2023-10-13T08:50:46;96513.50;;;23.82
71640;BMP280;60912;48.968;10.124;2023-10-13T08:58:30;96516.13;;;24.13
71640;BMP280;60912;48.968;10.124;2023-10-13T09:01:14;96510.25;;;24.43
71640;BMP280;60912;48.968;10.124;2023-10-13T09:04:07;96507.34;;;24.41
71640;BMP280;60912;48.968;10.124;2023-10-13T09:06:44;96513.22;;;24.47
71640;BMP280;60912;48.968;10.124;2023-10-13T09:09:23;96503.63;;;24.54
71640;BMP280;60912;48.968;10.124;2023-10-13T09:14:41;96506.91;;;25.05
71640;BMP280;60912;48.968;10.124;2023-10-13T09:17:11;96499.09;;;25.23
71640;BMP280;60912;48.968;10.124;2023-10-13T09:19:48;96503.97;;;25.42
71640;BMP280;60912;48.968;10.124;2023-10-13T09:22:27;96504.03;;;25.44
71640;BMP280;60912;48.968;10.124;2023-10-13T09:24:59;96499.75;;;25.43
71640;BMP280;60912;48.968;10.124;2023-10-13T09:27:30;96494.44;;;25.54
71640;BMP280;60912;48.968;10.124;2023-10-13T09:30:01;96493.38;;;25.63
71640;BMP280;60912;48.968;10.124;2023-10-13T09:32:44;96490.59;;;25.65
71640;BMP280;60912;48.968;10.124;2023-10-13T09:35:19;96483.09;;;25.52
71640;BMP280;60912;48.968;10.124;2023-10-13T09:37:49;96488.91;;;25.56
71640;BMP280;60912;48.968;10.124;2023-10-13T09:40:16;96488.72;;;25.50
71640;BMP280;60912;48.968;10.124;2023-10-13T09:42:53;96485.09;;;25.69
71640;BMP280;60912;48.968;10.124;2023-10-13T09:45:25;96491.84;;;25.81
71640;BMP280;60912;48.968;10.124;2023-10-13T09:47:55;96483.25;;;25.99
71640;BMP280;60912;48.968;10.124;2023-10-13T09:50:25;96484.13;;;26.05
71640;BMP280;60912;48.968;10.124;2023-10-13T09:52:53;96474.34;;;26.09
71640;BMP280;60912;48.968;10.124;2023-10-13T09:55:35;96475.88;;;26.35
71640;BMP280;60912;48.968;10.124;2023-10-13T09:58:06;96476.72;;;26.65
71640;BMP280;60912;48.968;10.124;2023-10-13T10:00:50;96469.88;;;26.73
71640;BMP280;60912;48.968;10.124;2023-10-13T10:03:46;96472.03;;;26.74
71640;BMP280;60912;48.968;10.124;2023-10-13T10:06:31;96479.50;;;26.63
71640;BMP280;60912;48.968;10.124;2023-10-13T10:09:08;96472.75;;;26.75
71640;BMP280;60912;48.968;10.124;2023-10-13T10:14:35;96465.59;;;27.25
71640;BMP280;60912;48.968;10.124;2023-10-13T10:17:07;96471.81;;;27.19
71640;BMP280;60912;48.968;10.124;2023-10-13T10:22:13;96468.31;;;27.49
71640;BMP280;60912;48.968;10.124;2023-10-13T10:24:56;96474.75;;;27.51
71640;BMP280;60912;48.968;10.124;2023-10-13T10:27:30;96465.75;;;27.59
71640;BMP280;60912;48.968;10.124;2023-10-13T10:29:56;96448.50;;;27.49
71640;BMP280;60912;48.968;10.124;2023-10-13T10:32:37;96450.44;;;27.42
71640;BMP280;60912;48.968;10.124;2023-10-13T10:35:08;96449.78;;;27.44
71640;BMP280;60912;48.968;10.124;2023-10-13T10:37:41;96440.69;;;27.47
71640;BMP280;60912;48.968;10.124;2023-10-13T10:40:14;96442.25;;;27.54
71640;BMP280;60912;48.968;10.124;2023-10-13T10:42:58;96435.81;;;27.81
71640;BMP280;60912;48.968;10.124;2023-10-13T10:45:26;96436.31;;;28.04
71640;BMP280;60912;48.968;10.124;2023-10-13T10:47:57;96422.38;;;28.14
71640;BMP280;60912;48.968;10.124;2023-10-13T10:50:26;96425.88;;;27.80
71640;BMP280;60912;48.968;10.124;2023-10-13T10:53:04;96419.31;;;27.72
71640;BMP280;60912;48.968;10.124;2023-10-13T10:55:37;96408.16;;;27.48
71640;BMP280;60912;48.968;10.124;2023-10-13T10:58:03;96415.16;;;27.45
71640;BMP280;60912;48.968;10.124;2023-10-13T11:01:05;96414.06;;;27.58
71640;BMP280;60912;48.968;10.124;2023-10-13T11:03:36;96399.06;;;27.83
71640;BMP280;60912;48.968;10.124;2023-10-13T11:06:04;96393.59;;;27.93
71640;BMP280;60912;48.968;10.124;2023-10-13T11:08:33;96391.06;;;28.08
71640;BMP280;60912;48.968;10.124;2023-10-13T11:11:02;96399.72;;;28.14
71640;BMP280;60912;48.968;10.124;2023-10-13T11:13:44;96383.00;;;28.30
71640;BMP280;60912;48.968;10.124;2023-10-13T11:16:22;96385.25;;;28.35
71640;BMP280;60912;48.968;10.124;2023-10-13T11:19:04;96374.38;;;28.24
71640;BMP280;60912;48.968;10.124;2023-10-13T11:21:32;96373.38;;;28.09
71640;BMP280;60912;48.968;10.124;2023-10-13T11:23:58;96374.22;;;28.16
71640;BMP280;60912;48.968;10.124;2023-10-13T11:26:36;96380.22;;;28.32
71640;BMP280;60912;48.968;10.124;2023-10-13T11:29:16;96373.75;;;28.27
71640;BMP280;60912;48.968;10.124;2023-10-13T11:31:46;96366.47;;;28.18
71640;BMP280;60912;48.968;10.124;2023-10-13T11:34:21;96367.19;;;28.19
71640;BMP280;60912;48.968;10.124;2023-10-13T11:36:47;96363.06;;;28.24
71640;BMP280;60912;48.968;10.124;2023-10-13T11:39:18;96361.47;;;28.15
71640;BMP280;60912;48.968;10.124;2023-10-13T11:42:11;96359.06;;;28.37
71640;BMP280;60912;48.968;10.124;2023-10-13T11:44:36;96349.94;;;28.82
71640;BMP280;60912;48.968;10.124;2023-10-13T11:47:11;96351.84;;;29.11
71640;BMP280;60912;48.968;10.124;2023-10-13T11:49:55;96344.78;;;28.71
71640;BMP280;60912;48.968;10.124;2023-10-13T11:52:23;96337.78;;;28.76
71640;BMP280;60912;48.968;10.124;2023-10-13T11:54:51;96331.34;;;28.71
71640;BMP280;60912;48.968;10.124;2023-10-13T11:57:17;96336.13;;;28.62
71640;BMP280;60912;48.968;10.124;2023-10-13T11:59:44;96333.34;;;28.66
71640;BMP280;60912;48.968;10.124;2023-10-13T12:02:18;96335.38;;;28.60
71640;BMP280;60912;48.968;10.124;2023-10-13T12:04:52;96332.06;;;28.34
71640;BMP280;60912;48.968;10.124;2023-10-13T12:07:23;96326.91;;;28.22
71640;BMP280;60912;48.968;10.124;2023-10-13T12:10:07;96316.13;;;28.15
71640;BMP280;60912;48.968;10.124;2023-10-13T12:12:41;96321.59;;;28.05
71640;BMP280;60912;48.968;10.124;2023-10-13T12:15:08;96321.75;;;27.79
71640;BMP280;60912;48.968;10.124;2023-10-13T12:17:35;96315.38;;;27.78
71640;BMP280;60912;48.968;10.124;2023-10-13T12:20:01;96319.91;;;27.91
71640;BMP280;60912;48.968;10.124;2023-10-13T12:22:33;96303.84;;;28.02
71640;BMP280;60912;48.968;10.124;2023-10-13T12:25:05;96304.94;;;28.23
71640;BMP280;60912;48.968;10.124;2023-10-13T12:27:43;96299.94;;;28.59
71640;BMP280;60912;48.968;10.124;2023-10-13T12:30:14;96303.09;;;28.79
71640;BMP280;60912;48.968;10.124;2023-10-13T12:32:41;96284.63;;;28.78
71640;BMP280;60912;48.968;10.124;2023-10-13T12:35:24;96287.63;;;28.86
71640;BMP280;60912;48.968;10.124;2023-10-13T12:37:55;96284.69;;;28.80
71640;BMP280;60912;48.968;10.124;2023-10-13T12:40:30;96283.31;;;28.83
71640;BMP280;60912;48.968;10.124;2023-10-13T12:43:14;96274.91;;;28.91
71640;BMP280;60912;48.968;10.124;2023-10-13T12:45:58;96274.84;;;28.85
71640;BMP280;60912;48.968;10.124;2023-10-13T12:48:42;96272.03;;;28.87
71640;BMP280;60912;48.968;10.124;2023-10-13T12:51:26;96272.81;;;28.92
71640;BMP280;60912;48.968;10.124;2023-10-13T12:53:57;96268.34;;;28.81
71640;BMP280;60912;48.968;10.124;2023-10-13T12:56:48;96265.75;;;28.95
71640;BMP280;60912;48.968;10.124;2023-10-13T12:59:13;96267.72;;;28.84
71640;BMP280;60912;48.968;10.124;2023-10-13T13:01:39;96262.09;;;28.86
71640;BMP280;60912;48.968;10.124;2023-10-13T13:04:08;96262.88;;;28.93
71640;BMP280;60912;48.968;10.124;2023-10-13T13:06:38;96256.13;;;28.68
71640;BMP280;60912;48.968;10.124;2023-10-13T13:09:05;96249.66;;;28.63
71640;BMP280;60912;48.968;10.124;2023-10-13T13:11:34;96253.44;;;28.78
71640;BMP280;60912;48.968;10.124;2023-10-13T13:14:04;96246.50;;;28.87
71640;BMP280;60912;48.968;10.124;2023-10-13T13:16:33;96244.97;;;28.80
71640;BMP280;60912;48.968;10.124;2023-10-13T13:18:58;96233.31;;;28.60
71640;BMP280;60912;48.968;10.124;2023-10-13T13:21:24;96239.56;;;28.50
71640;BMP280;60912;48.968;10.124;2023-10-13T13:23:52;96231.22;;;28.62
71640;BMP280;60912;48.968;10.124;2023-10-13T13:26:23;96230.75;;;28.76
71640;BMP280;60912;48.968;10.124;2023-10-13T13:28:49;96225.28;;;28.90
71640;BMP280;60912;48.968;10.124;2023-10-13T13:31:20;96225.63;;;28.68
71640;BMP280;60912;48.968;10.124;2023-10-13T13:33:55;96223.78;;;28.41
71640;BMP280;60912;48.968;10.124;2023-10-13T13:36:20;96219.53;;;28.42
71640;BMP280;60912;48.968;10.124;2023-10-13T13:38:47;96212.66;;;28.53
71640;BMP280;60912;48.968;10.124;2023-10-13T13:41:17;96210.06;;;28.70
71640;BMP280;60912;48.968;10.124;2023-10-13T13:43:47;96209.50;;;28.79
71640;BMP280;60912;48.968;10.124;2023-10-13T13:46:22;96202.38;;;28.78
71640;BMP280;60912;48.968;10.124;2023-10-13T13:48:53;96203.63;;;28.67
71640;BMP280;60912;48.968;10.124;2023-10-13T13:51:24;96200.03;;;28.62
71640;BMP280;60912;48.968;10.124;2023-10-13T13:53:55;96188.00;;;28.62
71640;BMP280;60912;48.968;10.124;2023-10-13T13:56:20;96185.06;;;28.58
71640;BMP280;60912;48.968;10.124;2023-10-13T13:58:47;96184.09;;;28.41
71640;BMP280;60912;48.968;10.124;2023-10-13T14:01:12;96177.66;;;28.37
71640;BMP280;60912;48.968;10.124;2023-10-13T14:03:43;96172.56;;;28.29
71640;BMP280;60912;48.968;10.124;2023-10-13T14:06:21;96168.38;;;28.32
71640;BMP280;60912;48.968;10.124;2023-10-13T14:08:53;96163.28;;;28.25
71640;BMP280;60912;48.968;10.124;2023-10-13T14:11:23;96161.69;;;28.16
71640;BMP280;60912;48.968;10.124;2023-10-13T14:14:12;96159.38;;;28.02
71640;BMP280;60912;48.968;10.124;2023-10-13T14:16:42;96155.75;;;27.97
71640;BMP280;60912;48.968;10.124;2023-10-13T14:19:13;96150.16;;;28.02
71640;BMP280;60912;48.968;10.124;2023-10-13T14:22:05;96156.28;;;27.90
71640;BMP280;60912;48.968;10.124;2023-10-13T14:24:37;96151.94;;;27.83
71640;BMP280;60912;48.968;10.124;2023-10-13T14:27:16;96149.66;;;27.73
71640;BMP280;60912;48.968;10.124;2023-10-13T14:29:48;96142.41;;;27.64
71640;BMP280;60912;48.968;10.124;2023-10-13T14:32:18;96146.50;;;27.57
71640;BMP280;60912;48.968;10.124;2023-10-13T14:34:50;96142.81;;;27.49
71640;BMP280;60912;48.968;10.124;2023-10-13T14:37:20;96140.59;;;27.45
71640;BMP280;60912;48.968;10.124;2023-10-13T14:39:52;96139.03;;;27.36
71640;BMP280;60912;48.968;10.124;2023-10-13T14:42:23;96131.88;;;27.33
71640;BMP280;60912;48.968;10.124;2023-10-13T14:44:48;96135.88;;;27.22
71640;BMP280;60912;48.968;10.124;2023-10-13T14:47:23;96134.34;;;27.15